createdAt,value
2022-12-02T00:00:26.830Z,7.60
2022-12-02T00:02:58.327Z,7.50
2022-12-02T00:05:31.039Z,7.43
2022-12-02T00:08:13.341Z,7.71
2022-12-02T00:10:40.178Z,7.44
2022-12-02T00:13:30.007Z,7.43
2022-12-02T00:16:03.995Z,7.45
2022-12-02T00:18:31.511Z,7.56
2022-12-02T00:20:58.329Z,7.50
2022-12-02T00:23:25.143Z,7.61
2022-12-02T00:25:53.981Z,7.72
2022-12-02T00:28:21.321Z,7.59
2022-12-02T00:30:48.139Z,7.45
2022-12-02T00:33:15.762Z,7.40
2022-12-02T00:35:43.222Z,7.35
2022-12-02T00:38:10.583Z,7.36
2022-12-02T00:40:37.658Z,7.35
2022-12-02T00:43:23.452Z,7.29
2022-12-02T00:46:09.202Z,6.98
2022-12-02T00:48:36.874Z,7.19
2022-12-02T00:51:03.981Z,7.09
2022-12-02T00:53:32.611Z,7.05
2022-12-02T00:55:59.399Z,7.21
2022-12-02T00:58:26.509Z,7.16
2022-12-02T01:00:53.268Z,7.16
2022-12-02T01:03:20.219Z,7.10
2022-12-02T01:05:48.031Z,7.01
2022-12-02T01:08:14.846Z,7.11
2022-12-02T01:10:41.747Z,7.37
2022-12-02T01:13:08.537Z,7.44
2022-12-02T01:15:35.397Z,7.50
2022-12-02T01:18:02.260Z,7.46
2022-12-02T01:20:29.218Z,7.41
2022-12-02T01:22:56.083Z,7.63
2022-12-02T01:25:22.777Z,7.61
2022-12-02T01:27:49.522Z,7.58
2022-12-02T01:30:16.454Z,7.53
2022-12-02T01:32:43.193Z,7.64
2022-12-02T01:35:10.298Z,7.58
2022-12-02T01:37:38.093Z,7.26
2022-12-02T01:40:08.610Z,7.40
2022-12-02T01:42:35.650Z,7.31
2022-12-02T01:45:03.330Z,7.25
2022-12-02T01:47:31.693Z,7.40
2022-12-02T01:49:58.835Z,7.11
2022-12-02T01:52:26.021Z,6.65
2022-12-02T01:54:53.485Z,6.85
2022-12-02T01:57:26.809Z,7.09
2022-12-02T01:59:53.862Z,7.22
2022-12-02T02:02:26.541Z,7.14
2022-12-02T02:04:57.482Z,7.26
2022-12-02T02:07:24.781Z,6.83
2022-12-02T02:09:52.003Z,6.87
2022-12-02T02:12:19.046Z,7.00
2022-12-02T02:14:46.721Z,7.16
2022-12-02T02:17:13.888Z,7.22
2022-12-02T02:19:40.815Z,7.14
2022-12-02T02:22:13.829Z,7.18
2022-12-02T02:24:40.668Z,7.19
2022-12-02T02:27:07.656Z,7.14
2022-12-02T02:29:34.612Z,7.38
2022-12-02T02:32:02.074Z,7.34
2022-12-02T02:34:28.930Z,6.83
2022-12-02T02:36:56.266Z,7.27
2022-12-02T02:39:24.141Z,7.37
2022-12-02T02:41:53.461Z,7.24
2022-12-02T02:44:25.472Z,7.21
2022-12-02T02:46:53.453Z,7.04
2022-12-02T02:49:20.782Z,6.98
2022-12-02T02:51:47.774Z,7.14
2022-12-02T02:54:15.421Z,7.03
2022-12-02T02:56:42.505Z,6.90
2022-12-02T02:59:16.600Z,7.04
2022-12-02T03:01:48.171Z,7.19
2022-12-02T03:04:19.080Z,7.05
2022-12-02T03:06:47.644Z,6.92
2022-12-02T03:09:18.120Z,7.16
2022-12-02T03:11:48.247Z,6.74
2022-12-02T03:14:17.133Z,6.98
2022-12-02T03:16:45.786Z,7.15
2022-12-02T03:19:13.081Z,6.94
2022-12-02T03:21:40.342Z,6.85
2022-12-02T03:24:07.552Z,6.81
2022-12-02T03:26:35.051Z,6.87
2022-12-02T03:29:04.560Z,6.68
2022-12-02T03:31:33.666Z,6.69
2022-12-02T03:34:00.561Z,6.45
2022-12-02T03:36:28.344Z,6.78
2022-12-02T03:38:55.828Z,6.43
2022-12-02T03:41:25.438Z,6.70
2022-12-02T03:43:52.697Z,6.53
2022-12-02T03:46:19.542Z,6.79
2022-12-02T03:48:47.907Z,6.92
2022-12-02T03:51:15.637Z,6.58
2022-12-02T03:53:43.878Z,6.73
2022-12-02T03:56:11.228Z,6.87
2022-12-02T03:58:56.170Z,6.50
2022-12-02T04:01:24.409Z,6.94
2022-12-02T04:03:51.198Z,6.97
2022-12-02T04:06:18.100Z,6.84
2022-12-02T04:08:44.866Z,6.50
2022-12-02T04:11:11.738Z,6.54
2022-12-02T04:13:38.871Z,6.89
2022-12-02T04:16:06.021Z,6.61
2022-12-02T04:18:32.948Z,6.79
2022-12-02T04:21:00.007Z,6.83
2022-12-02T04:23:26.764Z,6.44
2022-12-02T04:25:53.461Z,6.63
2022-12-02T04:28:20.267Z,6.77
2022-12-02T04:30:47.003Z,6.65
2022-12-02T04:33:14.005Z,6.85
2022-12-02T04:35:40.754Z,6.85
2022-12-02T04:38:12.008Z,6.75
2022-12-02T04:40:39.882Z,6.84
2022-12-02T04:43:06.796Z,7.05
2022-12-02T04:45:33.736Z,6.81
2022-12-02T04:48:00.669Z,7.10
2022-12-02T04:50:27.676Z,6.87
2022-12-02T04:52:54.349Z,7.07
2022-12-02T04:55:21.309Z,7.26
2022-12-02T04:57:48.019Z,7.29
2022-12-02T05:00:15.493Z,7.38
2022-12-02T05:02:42.335Z,7.29
2022-12-02T05:05:10.607Z,7.29
2022-12-02T05:07:37.414Z,7.36
2022-12-02T05:10:05.773Z,7.46
2022-12-02T05:12:32.541Z,7.41
2022-12-02T05:14:59.389Z,7.49
2022-12-02T05:17:26.216Z,7.46
2022-12-02T05:19:53.187Z,7.16
2022-12-02T05:22:19.942Z,7.33
2022-12-02T05:24:48.506Z,7.29
2022-12-02T05:27:16.585Z,7.34
2022-12-02T05:29:43.438Z,7.41
2022-12-02T05:32:10.235Z,6.99
2022-12-02T05:34:36.987Z,7.03
2022-12-02T05:37:04.049Z,7.27
2022-12-02T05:39:30.836Z,7.22
2022-12-02T05:42:05.687Z,7.21
2022-12-02T05:44:39.376Z,7.25
2022-12-02T05:47:11.841Z,7.52
2022-12-02T05:49:40.038Z,7.60
2022-12-02T05:52:27.111Z,7.43
2022-12-02T05:55:00.679Z,7.40
2022-12-02T05:57:30.410Z,7.48
2022-12-02T06:00:22.180Z,7.35
2022-12-02T06:02:58.711Z,7.29
2022-12-02T06:05:29.332Z,7.50
2022-12-02T06:08:01.464Z,7.52
2022-12-02T06:10:30.677Z,7.60
2022-12-02T06:13:07.413Z,7.72
2022-12-02T06:15:38.451Z,7.73
2022-12-02T06:18:23.468Z,7.69
2022-12-02T06:20:55.308Z,7.58
2022-12-02T06:23:27.305Z,7.52
2022-12-02T06:25:55.354Z,7.46
2022-12-02T06:28:34.506Z,7.67
2022-12-02T06:31:16.887Z,7.55
2022-12-02T06:33:47.319Z,7.55
2022-12-02T06:36:25.252Z,7.31
2022-12-02T06:38:57.124Z,7.44
2022-12-02T06:41:30.178Z,7.69
2022-12-02T06:44:51.335Z,7.92
2022-12-02T06:47:33.580Z,8.17
2022-12-02T06:50:06.338Z,8.45
2022-12-02T06:52:39.942Z,8.44
2022-12-02T06:55:29.551Z,8.42
2022-12-02T06:58:03.007Z,8.55
2022-12-02T07:00:32.666Z,8.46
2022-12-02T07:02:59.383Z,8.20
2022-12-02T07:05:26.290Z,8.39
2022-12-02T07:07:54.125Z,8.46
2022-12-02T07:10:25.477Z,8.47
2022-12-02T07:12:53.936Z,8.39
2022-12-02T07:15:29.798Z,8.41
2022-12-02T07:17:58.616Z,8.36
2022-12-02T07:20:33.218Z,8.53
2022-12-02T07:23:15.839Z,8.46
2022-12-02T07:25:52.665Z,8.51
2022-12-02T07:28:24.983Z,8.72
2022-12-02T07:31:08.970Z,8.88
2022-12-02T07:33:36.256Z,8.76
2022-12-02T07:36:03.080Z,8.83
2022-12-02T07:38:57.637Z,8.76
2022-12-02T07:41:19.541Z,8.80
2022-12-02T07:43:46.619Z,8.82
2022-12-02T07:46:13.581Z,8.77
2022-12-02T07:48:40.373Z,7.75
2022-12-02T07:51:07.521Z,8.25
2022-12-02T07:53:34.218Z,8.03
2022-12-02T07:56:01.071Z,8.40
2022-12-02T07:58:48.291Z,8.57
2022-12-02T08:01:19.039Z,8.71
2022-12-02T08:03:46.630Z,8.19
2022-12-02T08:06:13.303Z,8.42
2022-12-02T08:08:40.149Z,8.40
2022-12-02T08:11:07.988Z,8.63
2022-12-02T08:13:34.842Z,8.61
2022-12-02T08:16:01.522Z,7.93
2022-12-02T08:18:28.710Z,8.02
2022-12-02T08:20:55.449Z,8.44
2022-12-02T08:23:22.257Z,8.56
2022-12-02T08:25:49.244Z,8.85
2022-12-02T08:28:16.213Z,8.78
2022-12-02T08:30:43.037Z,8.54
2022-12-02T08:33:10.005Z,8.64
2022-12-02T08:35:39.678Z,8.69
2022-12-02T08:38:07.977Z,8.85
2022-12-02T08:40:35.320Z,8.77
2022-12-02T08:43:02.756Z,8.85
2022-12-02T08:45:30.473Z,9.17
2022-12-02T08:47:57.281Z,9.12
2022-12-02T08:50:24.541Z,9.16
2022-12-02T08:52:58.152Z,9.21
2022-12-02T08:55:26.429Z,9.20
2022-12-02T08:57:53.661Z,8.84
2022-12-02T09:00:20.837Z,8.67
2022-12-02T09:02:48.019Z,8.44
2022-12-02T09:05:15.600Z,8.56
2022-12-02T09:07:42.399Z,8.69
2022-12-02T09:10:10.616Z,9.00
2022-12-02T09:12:37.384Z,8.92
2022-12-02T09:15:05.395Z,8.68
2022-12-02T09:17:32.072Z,8.95
2022-12-02T09:19:59.277Z,9.02
2022-12-02T09:22:26.184Z,9.18
2022-12-02T09:24:53.324Z,8.97
2022-12-02T09:27:20.340Z,9.01
2022-12-02T09:29:47.203Z,8.69
2022-12-02T09:32:14.002Z,9.05
2022-12-02T09:34:40.692Z,9.04
2022-12-02T09:37:07.653Z,9.09
2022-12-02T09:39:53.203Z,9.33
2022-12-02T09:42:20.677Z,9.57
2022-12-02T09:44:48.734Z,9.75
2022-12-02T09:47:17.948Z,9.84
2022-12-02T09:49:45.935Z,9.94
2022-12-02T09:52:19.774Z,9.88
2022-12-02T09:54:49.640Z,9.76
2022-12-02T09:57:17.656Z,9.39
2022-12-02T09:59:44.790Z,9.66
2022-12-02T10:02:48.164Z,9.43
2022-12-02T10:05:24.769Z,9.54
2022-12-02T10:07:54.635Z,9.63
2022-12-02T10:10:26.138Z,9.93
2022-12-02T10:12:54.170Z,9.72
2022-12-02T10:15:26.607Z,9.41
2022-12-02T10:17:55.119Z,9.84
2022-12-02T10:20:25.193Z,9.54
2022-12-02T10:23:20.558Z,9.93
2022-12-02T10:25:54.317Z,10.03
2022-12-02T10:28:30.533Z,9.80
2022-12-02T10:31:22.577Z,10.17
2022-12-02T10:33:56.563Z,10.08
2022-12-02T10:36:53.685Z,9.96
2022-12-02T10:39:38.089Z,9.98
2022-12-02T10:42:08.619Z,10.11
2022-12-02T10:44:42.897Z,9.92
2022-12-02T10:47:26.122Z,10.10
2022-12-02T10:49:55.657Z,9.33
2022-12-02T10:52:35.364Z,9.62
2022-12-02T10:55:04.356Z,9.91
2022-12-02T10:57:33.359Z,9.87
2022-12-02T11:00:05.450Z,10.08
2022-12-02T11:02:40.195Z,10.15
2022-12-02T11:05:25.356Z,9.93
2022-12-02T11:07:57.848Z,10.08
2022-12-02T11:10:29.012Z,10.24
2022-12-02T11:12:55.777Z,10.15
2022-12-02T11:15:45.065Z,10.35
2022-12-02T11:18:30.135Z,10.29
2022-12-02T11:21:03.509Z,10.04
2022-12-02T11:23:31.736Z,9.91
2022-12-02T11:26:02.087Z,10.10
2022-12-02T11:28:28.903Z,9.83
2022-12-02T11:31:10.710Z,10.04
2022-12-02T11:33:44.204Z,9.87
2022-12-02T11:36:19.516Z,10.01
2022-12-02T11:38:58.616Z,10.07
2022-12-02T11:41:27.811Z,9.93
2022-12-02T11:44:00.341Z,10.30
2022-12-02T11:46:51.137Z,10.38
2022-12-02T11:49:31.413Z,10.17
2022-12-02T11:52:10.164Z,10.15
2022-12-02T11:54:39.512Z,10.13
2022-12-02T11:57:07.084Z,10.24
2022-12-02T11:59:36.637Z,10.16
2022-12-02T12:02:17.420Z,10.00
2022-12-02T12:04:45.161Z,10.03
2022-12-02T12:07:12.608Z,10.00
2022-12-02T12:09:40.050Z,10.23
2022-12-02T12:12:19.010Z,9.71
2022-12-02T12:14:56.368Z,10.07
2022-12-02T12:17:45.318Z,10.01
2022-12-02T12:20:15.115Z,9.67
2022-12-02T12:22:42.043Z,9.86
2022-12-02T12:25:31.812Z,9.29
2022-12-02T12:27:58.868Z,10.03
2022-12-02T12:30:25.707Z,10.22
2022-12-02T12:32:52.809Z,10.05
2022-12-02T12:35:19.947Z,9.83
2022-12-02T12:37:46.782Z,9.64
2022-12-02T12:40:13.807Z,10.09
2022-12-02T12:42:40.672Z,9.86
2022-12-02T12:45:07.798Z,10.00
2022-12-02T12:47:34.988Z,9.55
2022-12-02T12:50:01.759Z,9.92
2022-12-02T12:52:28.588Z,10.09
2022-12-02T12:54:55.756Z,10.22
2022-12-02T12:57:22.502Z,10.30
2022-12-02T12:59:49.629Z,10.00
2022-12-02T13:02:16.977Z,10.39
2022-12-02T13:04:43.802Z,10.67
2022-12-02T13:07:10.640Z,10.41
2022-12-02T13:09:37.395Z,10.72
2022-12-02T13:12:08.420Z,10.72
2022-12-02T13:14:38.139Z,10.91
2022-12-02T13:17:05.148Z,11.01
2022-12-02T13:19:31.885Z,10.77
2022-12-02T13:21:58.666Z,10.51
2022-12-02T13:24:25.603Z,10.11
2022-12-02T13:26:52.393Z,9.98
2022-12-02T13:29:19.127Z,10.19
2022-12-02T13:31:46.103Z,9.90
2022-12-02T13:34:12.938Z,10.33
2022-12-02T13:36:39.705Z,10.20
2022-12-02T13:39:11.424Z,9.60
2022-12-02T13:41:38.861Z,10.16
2022-12-02T13:44:05.693Z,10.14
2022-12-02T13:46:32.928Z,9.69
2022-12-02T13:48:59.706Z,9.93
2022-12-02T13:51:26.775Z,9.77
2022-12-02T13:53:58.714Z,10.15
2022-12-02T13:56:26.033Z,10.07
2022-12-02T13:58:52.788Z,10.19
2022-12-02T14:01:20.200Z,9.42
2022-12-02T14:03:47.095Z,9.35
2022-12-02T14:06:13.941Z,9.92
2022-12-02T14:08:40.769Z,10.34
2022-12-02T14:11:07.665Z,10.12
2022-12-02T14:13:34.791Z,10.17
2022-12-02T14:16:01.631Z,10.41
2022-12-02T14:18:28.587Z,9.92
2022-12-02T14:20:55.419Z,10.55
2022-12-02T14:23:22.388Z,10.53
2022-12-02T14:25:49.206Z,10.60
2022-12-02T14:28:16.179Z,10.59
2022-12-02T14:30:43.019Z,10.57
2022-12-02T14:33:09.913Z,10.52
2022-12-02T14:35:37.044Z,10.00
2022-12-02T14:38:03.852Z,9.52
2022-12-02T14:40:31.917Z,9.84
2022-12-02T14:42:58.905Z,9.81
2022-12-02T14:45:26.721Z,9.60
2022-12-02T14:47:53.589Z,9.79
2022-12-02T14:50:24.811Z,9.70
2022-12-02T14:52:52.730Z,9.77
2022-12-02T14:55:19.551Z,9.79
2022-12-02T14:57:46.447Z,9.85
2022-12-02T15:00:14.110Z,10.01
2022-12-02T15:02:41.053Z,9.65
2022-12-02T15:05:14.014Z,9.59
2022-12-02T15:07:41.438Z,9.63
2022-12-02T15:10:08.826Z,9.38
2022-12-02T15:12:35.922Z,9.56
2022-12-02T15:17:50.147Z,10.23
2022-12-02T15:20:17.123Z,10.09
2022-12-02T15:22:44.020Z,10.00
2022-12-02T15:25:12.021Z,10.18
2022-12-02T15:27:38.839Z,9.82
2022-12-02T15:30:06.512Z,9.83
2022-12-02T15:32:33.281Z,10.27
2022-12-02T15:35:00.191Z,10.38
2022-12-02T15:37:26.943Z,10.25
2022-12-02T15:39:53.896Z,9.45
2022-12-02T15:42:21.126Z,9.74
2022-12-02T15:44:52.176Z,9.78
2022-12-02T15:47:19.304Z,9.82
2022-12-02T15:49:46.067Z,9.70
2022-12-02T15:52:12.909Z,9.54
2022-12-02T15:54:39.615Z,9.59
2022-12-02T15:57:06.476Z,9.86
2022-12-02T15:59:33.231Z,9.94
2022-12-02T16:02:00.218Z,9.94
2022-12-02T16:04:26.987Z,9.79
2022-12-02T16:06:53.757Z,9.25
2022-12-02T16:09:20.555Z,9.94
2022-12-02T16:11:47.477Z,9.98
2022-12-02T16:14:15.513Z,9.92
2022-12-02T16:16:42.379Z,9.88
2022-12-02T16:19:09.335Z,9.83
2022-12-02T16:21:36.161Z,9.94
2022-12-02T16:24:03.142Z,9.71
2022-12-02T16:26:29.911Z,9.79
2022-12-02T16:28:57.125Z,9.89
2022-12-02T16:31:23.885Z,10.17
2022-12-02T16:33:50.897Z,10.24
2022-12-02T16:36:17.676Z,9.87
2022-12-02T16:38:44.547Z,9.90
2022-12-02T16:41:11.276Z,10.09
2022-12-02T16:43:38.176Z,9.93
2022-12-02T16:46:05.148Z,10.04
2022-12-02T16:48:31.963Z,10.25
2022-12-02T16:50:58.957Z,9.92
2022-12-02T16:53:25.662Z,9.91
2022-12-02T16:55:52.602Z,9.90
2022-12-02T16:58:19.482Z,9.88
2022-12-02T17:00:46.357Z,9.93
2022-12-02T17:03:13.143Z,9.53
2022-12-02T17:05:41.077Z,9.69
2022-12-02T17:08:08.074Z,9.67
2022-12-02T17:10:34.993Z,9.77
2022-12-02T17:13:01.825Z,9.90
2022-12-02T17:15:28.614Z,9.82
2022-12-02T17:17:55.770Z,10.09
2022-12-02T17:20:22.511Z,10.02
2022-12-02T17:22:49.381Z,10.20
2022-12-02T17:25:17.575Z,10.25
2022-12-02T17:27:44.305Z,9.98
2022-12-02T17:30:12.107Z,9.21
2022-12-02T17:32:39.379Z,9.68
2022-12-02T17:35:06.270Z,9.71
2022-12-02T17:37:33.319Z,10.09
2022-12-02T17:40:00.243Z,10.06
2022-12-02T17:42:27.157Z,9.75
2022-12-02T17:44:54.257Z,9.57
2022-12-02T17:47:21.326Z,9.79
2022-12-02T17:49:48.118Z,10.06
2022-12-02T17:52:22.095Z,9.93
2022-12-02T17:54:49.440Z,10.01
2022-12-02T17:57:16.385Z,10.33
2022-12-02T17:59:43.357Z,10.20
2022-12-02T18:02:10.574Z,10.15
2022-12-02T18:04:37.771Z,10.30
2022-12-02T18:07:09.683Z,10.47
2022-12-02T18:09:37.658Z,10.15
2022-12-02T18:12:05.486Z,10.25
2022-12-02T18:14:32.994Z,10.46
2022-12-02T18:17:00.069Z,10.49
2022-12-02T18:19:27.284Z,10.56
2022-12-02T18:21:54.111Z,10.60
2022-12-02T18:24:20.951Z,10.73
2022-12-02T18:26:47.818Z,10.61
2022-12-02T18:29:14.597Z,10.44
2022-12-02T18:31:41.535Z,10.42
2022-12-02T18:34:08.343Z,10.61
2022-12-02T18:36:35.294Z,10.37
2022-12-02T18:39:01.970Z,10.27
2022-12-02T18:41:28.727Z,10.23
2022-12-02T18:43:55.725Z,10.27
2022-12-02T18:46:22.495Z,10.27
2022-12-02T18:48:49.257Z,10.10
2022-12-02T18:51:16.181Z,10.15
2022-12-02T18:53:42.915Z,10.08
2022-12-02T18:56:09.812Z,10.11
2022-12-02T18:58:36.527Z,10.14
2022-12-02T19:01:03.351Z,10.45
2022-12-02T19:03:30.394Z,10.46
2022-12-02T19:05:57.207Z,10.03
2022-12-02T19:08:23.881Z,10.30
2022-12-02T19:10:51.172Z,10.24
2022-12-02T19:13:17.869Z,9.89
2022-12-02T19:15:44.704Z,10.10
2022-12-02T19:18:11.859Z,9.68
2022-12-02T19:20:38.630Z,9.82
2022-12-02T19:23:05.339Z,10.01
2022-12-02T19:25:32.535Z,10.15
2022-12-02T19:27:59.557Z,10.32
2022-12-02T19:30:27.566Z,10.07
2022-12-02T19:32:54.601Z,10.16
2022-12-02T19:35:22.424Z,10.13
2022-12-02T19:37:49.299Z,10.11
2022-12-02T19:40:16.256Z,9.69
2022-12-02T19:42:43.157Z,9.61
2022-12-02T19:45:13.125Z,9.35
2022-12-02T19:47:39.906Z,9.55
2022-12-02T19:50:08.004Z,9.80
2022-12-02T19:52:34.797Z,9.80
2022-12-02T19:55:01.853Z,9.33
2022-12-02T19:57:28.607Z,9.15
2022-12-02T19:59:55.308Z,8.54
2022-12-02T20:02:22.079Z,8.57
2022-12-02T20:04:49.630Z,9.20
2022-12-02T20:07:16.390Z,9.47
2022-12-02T20:09:43.319Z,9.36
2022-12-02T20:12:10.015Z,9.32
2022-12-02T20:14:36.865Z,9.07
2022-12-02T20:17:03.817Z,9.52
2022-12-02T20:19:30.584Z,9.59
2022-12-02T20:21:57.582Z,9.61
2022-12-02T20:24:24.375Z,9.76
2022-12-02T20:26:51.295Z,9.74
2022-12-02T20:29:18.041Z,10.02
2022-12-02T20:31:45.919Z,10.27
2022-12-02T20:34:12.766Z,10.24
2022-12-02T20:36:39.789Z,10.15
2022-12-02T20:39:06.573Z,10.02
2022-12-02T20:41:33.518Z,9.88
2022-12-02T20:44:00.260Z,9.79
2022-12-02T20:46:28.572Z,9.59
2022-12-02T20:48:55.492Z,9.29
2022-12-02T20:51:22.570Z,9.31
2022-12-02T20:53:50.734Z,9.19
2022-12-02T20:56:17.485Z,9.46
2022-12-02T20:58:46.645Z,9.49
2022-12-02T21:01:13.739Z,9.09
2022-12-02T21:03:40.538Z,8.89
2022-12-02T21:06:08.225Z,9.26
2022-12-02T21:08:35.521Z,9.41
2022-12-02T21:11:02.520Z,9.00
2022-12-02T21:13:29.244Z,9.03
2022-12-02T21:15:56.448Z,8.90
2022-12-02T21:18:23.261Z,9.14
2022-12-02T21:20:51.219Z,9.39
2022-12-02T21:23:19.158Z,9.21
2022-12-02T21:25:45.935Z,9.08
2022-12-02T21:28:12.766Z,9.05
2022-12-02T21:30:40.817Z,9.16
2022-12-02T21:33:07.485Z,9.28
2022-12-02T21:35:34.401Z,9.50
2022-12-02T21:38:01.195Z,9.50
2022-12-02T21:40:28.090Z,9.59
2022-12-02T21:42:54.758Z,9.63
2022-12-02T21:45:21.783Z,9.65
2022-12-02T21:47:48.626Z,9.88
2022-12-02T21:50:15.521Z,9.96
2022-12-02T21:52:42.586Z,10.00
2022-12-02T21:55:10.927Z,9.90
2022-12-02T21:57:37.708Z,9.91
2022-12-02T22:00:05.915Z,9.80
2022-12-02T22:02:39.662Z,9.79
2022-12-02T22:05:07.320Z,9.75
2022-12-02T22:07:40.911Z,9.74
2022-12-02T22:10:10.275Z,9.76
2022-12-02T22:12:36.887Z,9.88
2022-12-02T22:15:04.604Z,9.87
2022-12-02T22:17:31.350Z,9.82
2022-12-02T22:19:58.433Z,9.84
2022-12-02T22:22:25.323Z,9.71
2022-12-02T22:24:52.735Z,9.71
2022-12-02T22:27:19.501Z,9.75
2022-12-02T22:29:46.434Z,9.74
2022-12-02T22:32:13.307Z,9.71
2022-12-02T22:34:40.274Z,9.53
2022-12-02T22:37:06.974Z,9.55
2022-12-02T22:39:34.017Z,9.77
2022-12-02T22:42:01.126Z,9.47
2022-12-02T22:44:27.831Z,9.68
2022-12-02T22:46:54.522Z,9.84
2022-12-02T22:49:21.219Z,10.11
2022-12-02T22:51:48.232Z,10.38
2022-12-02T22:54:14.935Z,10.00
2022-12-02T22:56:41.694Z,9.88
2022-12-02T22:59:08.750Z,10.00
2022-12-02T23:01:35.486Z,9.82
2022-12-02T23:04:02.618Z,10.01
2022-12-02T23:06:29.913Z,9.97
2022-12-02T23:08:56.803Z,10.01
2022-12-02T23:11:23.726Z,9.90
2022-12-02T23:13:50.439Z,9.86
2022-12-02T23:16:17.386Z,9.70
2022-12-02T23:18:44.228Z,9.85
2022-12-02T23:21:11.116Z,9.96
2022-12-02T23:23:37.942Z,10.09
2022-12-02T23:26:04.713Z,10.26
2022-12-02T23:28:32.027Z,10.09
2022-12-02T23:30:58.845Z,9.69
2022-12-02T23:33:25.760Z,9.94
2022-12-02T23:35:52.549Z,9.99
2022-12-02T23:38:19.387Z,10.10
2022-12-02T23:40:46.105Z,10.33
2022-12-02T23:43:12.951Z,10.05
2022-12-02T23:45:40.272Z,10.07
2022-12-02T23:48:07.107Z,10.12
2022-12-02T23:50:33.930Z,10.20
2022-12-02T23:53:00.699Z,9.96
2022-12-02T23:55:27.610Z,9.82
2022-12-02T23:57:54.397Z,10.15
